createdAt,value
2019-01-12T00:00:42.307Z,0.00
2019-01-12T00:01:42.424Z,0.00
2019-01-12T00:02:42.237Z,0.00
2019-01-12T00:03:42.388Z,0.00
2019-01-12T00:04:42.264Z,0.00
2019-01-12T00:05:42.234Z,0.00
2019-01-12T00:06:42.248Z,0.00
2019-01-12T00:07:42.191Z,0.00
2019-01-12T00:08:42.175Z,0.00
2019-01-12T00:09:42.266Z,0.00
2019-01-12T00:10:42.150Z,0.00
2019-01-12T00:11:42.144Z,0.00
2019-01-12T00:12:42.201Z,0.00
2019-01-12T00:13:42.143Z,0.00
2019-01-12T00:14:42.137Z,0.00
2019-01-12T00:15:42.119Z,0.00
2019-01-12T00:16:42.090Z,0.00
2019-01-12T00:17:42.111Z,0.00
2019-01-12T00:18:42.055Z,0.00
2019-01-12T00:19:42.135Z,0.00
2019-01-12T00:20:42.035Z,0.00
2019-01-12T00:21:42.031Z,0.00
2019-01-12T00:22:42.009Z,0.00
2019-01-12T00:23:42.074Z,0.00
2019-01-12T00:24:42.012Z,0.00
2019-01-12T00:25:42.051Z,0.00
2019-01-12T00:26:41.984Z,0.00
2019-01-12T00:27:41.960Z,0.00
2019-01-12T00:28:41.946Z,0.00
2019-01-12T00:29:41.965Z,0.00
2019-01-12T00:30:41.940Z,0.00
2019-01-12T00:31:41.917Z,0.00
2019-01-12T00:32:41.904Z,0.00
2019-01-12T00:33:41.901Z,0.00
2019-01-12T00:34:41.885Z,0.00
2019-01-12T00:35:41.984Z,0.00
2019-01-12T00:36:41.867Z,0.00
2019-01-12T00:37:41.859Z,0.00
2019-01-12T00:38:41.833Z,0.00
2019-01-12T00:39:41.840Z,0.00
2019-01-12T00:40:41.825Z,0.00
2019-01-12T00:41:41.802Z,0.00
2019-01-12T00:42:41.798Z,0.00
2019-01-12T00:43:41.816Z,0.00
2019-01-12T00:44:41.783Z,0.00
2019-01-12T00:45:41.774Z,0.00
2019-01-12T00:46:41.790Z,0.00
2019-01-12T00:47:41.733Z,0.00
2019-01-12T00:48:41.724Z,0.00
2019-01-12T00:49:41.710Z,0.00
2019-01-12T00:50:42.091Z,0.00
2019-01-12T00:51:41.698Z,0.00
2019-01-12T00:52:41.710Z,0.00
2019-01-12T00:53:41.675Z,0.00
2019-01-12T00:54:41.663Z,0.00
2019-01-12T00:55:41.674Z,0.00
2019-01-12T00:56:41.643Z,0.00
2019-01-12T00:57:41.628Z,0.00
2019-01-12T00:58:41.645Z,0.00
2019-01-12T00:59:41.645Z,0.00
2019-01-12T01:00:41.651Z,0.00
2019-01-12T01:01:41.617Z,0.00
2019-01-12T01:02:41.569Z,0.00
2019-01-12T01:03:41.558Z,0.00
2019-01-12T01:04:41.584Z,0.00
2019-01-12T01:05:41.544Z,0.00
2019-01-12T01:06:41.535Z,0.00
2019-01-12T01:07:41.516Z,0.00
2019-01-12T01:08:41.514Z,0.00
2019-01-12T01:09:41.544Z,0.00
2019-01-12T01:10:41.535Z,0.00
2019-01-12T01:11:41.474Z,0.00
2019-01-12T01:12:41.459Z,0.00
2019-01-12T01:13:41.542Z,0.00
2019-01-12T01:14:41.430Z,0.00
2019-01-12T01:15:41.465Z,0.00
2019-01-12T01:16:41.450Z,0.00
2019-01-12T01:17:41.404Z,0.00
2019-01-12T01:18:41.390Z,0.00
2019-01-12T01:19:41.394Z,0.00
2019-01-12T01:20:41.383Z,0.00
2019-01-12T01:21:41.448Z,0.00
2019-01-12T01:22:41.456Z,0.00
2019-01-12T01:23:41.342Z,0.00
2019-01-12T01:24:45.770Z,0.00
2019-01-12T01:25:41.311Z,0.00
2019-01-12T01:26:41.344Z,0.00
2019-01-12T01:27:41.286Z,0.00
2019-01-12T01:28:41.279Z,0.00
2019-01-12T01:29:41.275Z,0.00
2019-01-12T01:30:41.252Z,0.00
2019-01-12T01:31:41.284Z,0.00
2019-01-12T01:32:41.235Z,0.00
2019-01-12T01:33:41.219Z,0.00
2019-01-12T01:34:41.219Z,0.00
2019-01-12T01:35:41.224Z,0.00
2019-01-12T01:36:41.218Z,0.00
2019-01-12T01:37:41.202Z,0.00
2019-01-12T01:38:41.185Z,0.00
2019-01-12T01:39:41.166Z,0.00
2019-01-12T01:40:41.150Z,0.00
2019-01-12T01:41:41.173Z,0.00
2019-01-12T01:42:41.156Z,0.00
2019-01-12T01:43:41.117Z,0.00
2019-01-12T01:44:41.111Z,0.00
2019-01-12T01:45:41.110Z,0.00
2019-01-12T01:46:41.081Z,0.00
2019-01-12T01:47:41.092Z,0.00
2019-01-12T01:48:41.058Z,0.00
2019-01-12T01:49:41.044Z,0.00
2019-01-12T01:50:41.050Z,0.00
2019-01-12T01:51:41.028Z,0.00
2019-01-12T01:52:41.030Z,0.00
2019-01-12T01:53:41.014Z,0.00
2019-01-12T01:54:40.993Z,0.00
2019-01-12T01:55:40.986Z,0.00
2019-01-12T01:56:40.994Z,0.00
2019-01-12T01:57:40.964Z,0.00
2019-01-12T01:58:40.964Z,0.00
2019-01-12T01:59:40.935Z,0.00
2019-01-12T02:00:40.925Z,0.00
2019-01-12T02:01:40.927Z,0.00
2019-01-12T02:02:40.933Z,0.00
2019-01-12T02:03:40.889Z,0.00
2019-01-12T02:04:40.885Z,0.00
2019-01-12T02:05:40.885Z,0.00
2019-01-12T02:06:40.855Z,0.00
2019-01-12T02:07:40.855Z,0.00
2019-01-12T02:08:40.848Z,0.00
2019-01-12T02:09:40.818Z,0.00
2019-01-12T02:10:40.843Z,0.00
2019-01-12T02:11:40.797Z,0.00
2019-01-12T02:12:40.789Z,0.00
2019-01-12T02:13:40.809Z,0.00
2019-01-12T02:14:40.812Z,0.00
2019-01-12T02:15:40.788Z,0.00
2019-01-12T02:16:40.767Z,0.00
2019-01-12T02:17:40.735Z,0.00
2019-01-12T02:18:40.746Z,0.00
2019-01-12T02:19:40.727Z,0.00
2019-01-12T02:20:40.733Z,0.00
2019-01-12T02:21:40.699Z,0.00
2019-01-12T02:22:40.675Z,0.00
2019-01-12T02:23:40.691Z,0.00
2019-01-12T02:24:40.657Z,0.00
2019-01-12T02:25:40.640Z,0.00
2019-01-12T02:26:40.657Z,0.00
2019-01-12T02:27:40.624Z,0.00
2019-01-12T02:28:40.641Z,0.00
2019-01-12T02:29:40.598Z,0.00
2019-01-12T02:30:40.587Z,0.00
2019-01-12T02:31:40.569Z,0.00
2019-01-12T02:32:40.572Z,0.00
2019-01-12T02:33:40.587Z,0.00
2019-01-12T02:34:40.550Z,0.00
2019-01-12T02:35:40.537Z,0.00
2019-01-12T02:36:40.527Z,0.00
2019-01-12T02:37:40.506Z,0.00
2019-01-12T02:38:40.517Z,0.00
2019-01-12T02:39:40.494Z,0.00
2019-01-12T02:40:40.479Z,0.00
2019-01-12T02:41:40.467Z,0.00
2019-01-12T02:42:40.455Z,0.00
2019-01-12T02:43:40.469Z,0.00
2019-01-12T02:44:40.435Z,0.00
2019-01-12T02:45:40.432Z,0.00
2019-01-12T02:46:40.409Z,0.00
2019-01-12T02:47:40.406Z,0.00
2019-01-12T02:48:40.404Z,0.00
2019-01-12T02:49:40.401Z,0.00
2019-01-12T02:50:40.395Z,0.00
2019-01-12T02:51:40.347Z,0.00
2019-01-12T02:52:40.350Z,0.00
2019-01-12T02:53:40.327Z,0.00
2019-01-12T02:54:40.337Z,0.00
2019-01-12T02:55:40.303Z,0.00
2019-01-12T02:56:40.298Z,0.00
2019-01-12T02:57:40.286Z,0.00
2019-01-12T02:58:40.267Z,0.00
2019-01-12T02:59:40.306Z,0.00
2019-01-12T03:00:40.253Z,0.00
2019-01-12T03:01:40.242Z,0.00
2019-01-12T03:02:40.225Z,0.00
2019-01-12T03:03:40.215Z,0.00
2019-01-12T03:04:40.215Z,0.00
2019-01-12T03:05:40.194Z,0.00
2019-01-12T03:06:40.176Z,0.00
2019-01-12T03:07:40.186Z,0.00
2019-01-12T03:08:40.159Z,0.00
2019-01-12T03:09:40.179Z,0.00
2019-01-12T03:10:40.136Z,0.00
2019-01-12T03:11:40.130Z,0.00
2019-01-12T03:12:40.119Z,0.00
2019-01-12T03:13:40.108Z,0.00
2019-01-12T03:14:40.097Z,0.00
2019-01-12T03:15:40.115Z,0.00
2019-01-12T03:16:40.072Z,0.00
2019-01-12T03:17:40.060Z,0.00
2019-01-12T03:18:40.089Z,0.00
2019-01-12T03:19:40.040Z,0.00
2019-01-12T03:20:40.049Z,0.00
2019-01-12T03:21:41.318Z,0.00
2019-01-12T03:22:40.004Z,0.00
2019-01-12T03:23:39.995Z,0.00
2019-01-12T03:24:39.998Z,0.00
2019-01-12T03:25:40.006Z,0.00
2019-01-12T03:26:39.984Z,0.00
2019-01-12T03:27:39.954Z,0.00
2019-01-12T03:28:39.945Z,0.00
2019-01-12T03:29:39.938Z,0.00
2019-01-12T03:30:39.949Z,0.00
2019-01-12T03:31:39.901Z,0.00
2019-01-12T03:32:39.893Z,0.00
2019-01-12T03:33:39.878Z,0.00
2019-01-12T03:34:39.872Z,0.00
2019-01-12T03:35:39.879Z,0.00
2019-01-12T03:36:39.857Z,0.00
2019-01-12T03:37:39.835Z,0.00
2019-01-12T03:38:39.825Z,0.00
2019-01-12T03:39:39.829Z,0.00
2019-01-12T03:40:39.805Z,0.00
2019-01-12T03:41:39.814Z,0.00
2019-01-12T03:42:39.784Z,0.00
2019-01-12T03:43:39.800Z,0.00
2019-01-12T03:44:39.760Z,0.00
2019-01-12T03:45:39.761Z,0.00
2019-01-12T03:46:39.763Z,0.00
2019-01-12T03:47:39.727Z,0.00
2019-01-12T03:48:39.712Z,0.00
2019-01-12T03:49:39.712Z,0.00
2019-01-12T03:50:39.686Z,0.00
2019-01-12T03:51:39.695Z,0.00
2019-01-12T03:52:39.672Z,0.00
2019-01-12T03:53:39.686Z,0.00
2019-01-12T03:54:39.656Z,0.00
2019-01-12T03:55:39.646Z,0.00
2019-01-12T03:56:39.674Z,0.00
2019-01-12T03:57:39.607Z,0.00
2019-01-12T03:58:39.611Z,0.00
2019-01-12T03:59:39.590Z,0.00
2019-01-12T04:00:39.586Z,0.00
2019-01-12T04:01:39.586Z,0.00
2019-01-12T04:02:39.570Z,0.00
2019-01-12T04:03:39.568Z,0.00
2019-01-12T04:04:39.540Z,0.00
2019-01-12T04:05:39.526Z,0.00
2019-01-12T04:06:39.584Z,0.00
2019-01-12T04:07:39.566Z,0.00
2019-01-12T04:08:39.517Z,0.00
2019-01-12T04:09:39.482Z,0.00
2019-01-12T04:10:39.470Z,0.00
2019-01-12T04:11:39.458Z,0.00
2019-01-12T04:12:39.470Z,0.00
2019-01-12T04:13:39.436Z,0.00
2019-01-12T04:14:39.440Z,0.00
2019-01-12T04:15:39.417Z,0.00
2019-01-12T04:16:39.400Z,0.00
2019-01-12T04:17:39.406Z,0.00
2019-01-12T04:18:39.378Z,0.00
2019-01-12T04:19:39.375Z,0.00
2019-01-12T04:20:39.368Z,0.00
2019-01-12T04:21:39.363Z,0.00
2019-01-12T04:22:39.373Z,0.00
2019-01-12T04:23:39.354Z,0.00
2019-01-12T04:24:39.319Z,0.00
2019-01-12T04:25:39.318Z,0.00
2019-01-12T04:26:39.308Z,0.00
2019-01-12T04:27:39.303Z,0.00
2019-01-12T04:28:39.285Z,0.00
2019-01-12T04:29:39.265Z,0.00
2019-01-12T04:30:39.264Z,0.00
2019-01-12T04:31:39.238Z,0.00
2019-01-12T04:32:39.243Z,0.00
2019-01-12T04:33:39.215Z,0.00
2019-01-12T04:34:39.224Z,0.00
2019-01-12T04:35:39.192Z,0.00
2019-01-12T04:36:39.195Z,0.00
2019-01-12T04:37:39.201Z,0.00
2019-01-12T04:38:39.156Z,0.00
2019-01-12T04:39:39.154Z,0.00
2019-01-12T04:40:39.146Z,0.00
2019-01-12T04:41:39.177Z,0.00
2019-01-12T04:42:39.117Z,0.00
2019-01-12T04:43:39.124Z,0.00
2019-01-12T04:44:39.091Z,0.00
2019-01-12T04:45:39.087Z,0.00
2019-01-12T04:46:39.095Z,0.00
2019-01-12T04:47:39.058Z,0.00
2019-01-12T04:48:39.076Z,0.00
2019-01-12T04:49:39.030Z,0.00
2019-01-12T04:50:39.022Z,0.00
2019-01-12T04:51:39.180Z,0.00
2019-01-12T04:52:39.006Z,0.00
2019-01-12T04:53:39.081Z,0.00
2019-01-12T04:54:38.985Z,0.00
2019-01-12T04:55:41.539Z,0.00
2019-01-12T04:56:38.976Z,0.00
2019-01-12T04:57:38.944Z,0.00
2019-01-12T04:58:38.960Z,0.00
2019-01-12T04:59:38.968Z,0.00
2019-01-12T05:00:38.920Z,0.00
2019-01-12T05:01:38.937Z,0.00
2019-01-12T05:02:38.893Z,0.00
2019-01-12T05:03:38.925Z,0.00
2019-01-12T05:04:38.869Z,0.00
2019-01-12T05:05:38.871Z,0.00
2019-01-12T05:06:38.839Z,0.00
2019-01-12T05:07:38.831Z,0.00
2019-01-12T05:08:38.851Z,0.00
2019-01-12T05:09:38.808Z,0.00
2019-01-12T05:10:38.797Z,0.00
2019-01-12T05:11:38.811Z,0.00
2019-01-12T05:12:38.780Z,0.00
2019-01-12T05:13:38.795Z,0.00
2019-01-12T05:14:38.761Z,0.00
2019-01-12T05:15:38.738Z,0.00
2019-01-12T05:16:38.729Z,0.00
2019-01-12T05:17:38.727Z,0.00
2019-01-12T05:18:38.744Z,0.00
2019-01-12T05:19:38.717Z,0.00
2019-01-12T05:20:38.778Z,0.00
2019-01-12T05:21:38.681Z,0.00
2019-01-12T05:22:38.676Z,0.00
2019-01-12T05:23:38.649Z,0.00
2019-01-12T05:24:38.669Z,0.00
2019-01-12T05:25:38.633Z,0.00
2019-01-12T05:26:38.620Z,0.00
2019-01-12T05:27:38.616Z,0.00
2019-01-12T05:28:38.607Z,0.00
2019-01-12T05:29:38.614Z,0.00
2019-01-12T05:30:38.593Z,0.00
2019-01-12T05:31:38.569Z,0.00
2019-01-12T05:32:38.558Z,0.00
2019-01-12T05:33:38.569Z,0.00
2019-01-12T05:34:38.566Z,0.00
2019-01-12T05:35:38.519Z,0.00
2019-01-12T05:36:38.515Z,0.00
2019-01-12T05:37:38.530Z,0.00
2019-01-12T05:38:38.495Z,0.00
2019-01-12T05:39:38.525Z,0.00
2019-01-12T05:40:38.461Z,0.00
2019-01-12T05:41:38.456Z,0.00
2019-01-12T05:42:38.447Z,0.00
2019-01-12T05:43:38.427Z,0.00
2019-01-12T05:44:38.431Z,0.00
2019-01-12T05:45:38.429Z,0.00
2019-01-12T05:46:38.417Z,0.00
2019-01-12T05:47:38.385Z,0.00
2019-01-12T05:48:38.373Z,0.00
2019-01-12T05:49:38.365Z,0.00
2019-01-12T05:50:38.379Z,0.00
2019-01-12T05:51:38.335Z,0.00
2019-01-12T05:52:38.323Z,0.00
2019-01-12T05:53:38.321Z,0.00
2019-01-12T05:54:38.306Z,0.00
2019-01-12T05:55:38.317Z,0.00
2019-01-12T05:56:38.289Z,0.00
2019-01-12T05:57:38.281Z,0.00
2019-01-12T05:58:38.282Z,0.00
2019-01-12T05:59:38.243Z,0.00
2019-01-12T06:00:38.257Z,0.00
2019-01-12T06:01:38.218Z,0.00
2019-01-12T06:02:38.218Z,0.00
2019-01-12T06:03:38.200Z,0.00
2019-01-12T06:04:38.188Z,0.00
2019-01-12T06:05:38.248Z,0.00
2019-01-12T06:06:38.165Z,0.00
2019-01-12T06:07:38.153Z,0.00
2019-01-12T06:08:38.215Z,0.00
2019-01-12T06:09:38.131Z,0.00
2019-01-12T06:10:38.140Z,0.00
2019-01-12T06:11:38.162Z,0.00
2019-01-12T06:12:38.222Z,0.00
2019-01-12T06:13:38.091Z,0.00
2019-01-12T06:14:38.079Z,0.00
2019-01-12T06:15:38.062Z,0.00
2019-01-12T06:16:38.094Z,0.00
2019-01-12T06:17:38.061Z,0.00
2019-01-12T06:18:38.032Z,0.00
2019-01-12T06:19:38.018Z,0.00
2019-01-12T06:20:38.024Z,0.00
2019-01-12T06:21:38.042Z,0.00
2019-01-12T06:22:37.988Z,0.00
2019-01-12T06:23:38.068Z,0.00
2019-01-12T06:24:37.965Z,0.00
2019-01-12T06:25:37.974Z,0.00
2019-01-12T06:26:38.040Z,0.00
2019-01-12T06:27:37.934Z,0.00
2019-01-12T06:28:37.924Z,0.00
2019-01-12T06:29:37.911Z,0.00
2019-01-12T06:30:37.895Z,0.00
2019-01-12T06:31:37.914Z,0.00
2019-01-12T06:32:37.878Z,0.00
2019-01-12T06:33:37.909Z,0.00
2019-01-12T06:34:37.856Z,0.00
2019-01-12T06:35:37.890Z,0.00
2019-01-12T06:36:37.869Z,0.00
2019-01-12T06:37:37.820Z,0.00
2019-01-12T06:38:37.802Z,0.00
2019-01-12T06:39:37.806Z,0.00
2019-01-12T06:40:37.784Z,0.00
2019-01-12T06:41:37.774Z,0.00
2019-01-12T06:42:37.802Z,0.00
2019-01-12T06:43:37.766Z,0.00
2019-01-12T06:44:37.739Z,0.00
2019-01-12T06:45:37.726Z,0.00
2019-01-12T06:46:37.750Z,0.00
2019-01-12T06:47:37.722Z,0.00
2019-01-12T06:48:37.709Z,0.00
2019-01-12T06:49:37.688Z,0.00
2019-01-12T06:50:37.672Z,0.00
2019-01-12T06:51:37.667Z,0.00
2019-01-12T06:52:37.680Z,0.00
2019-01-12T06:53:37.638Z,0.00
2019-01-12T06:54:37.633Z,0.00
2019-01-12T06:55:37.630Z,0.00
2019-01-12T06:56:37.607Z,0.00
2019-01-12T06:57:37.628Z,0.00
2019-01-12T06:58:37.584Z,0.00
2019-01-12T06:59:37.587Z,0.00
2019-01-12T07:00:37.562Z,0.00
2019-01-12T07:01:37.554Z,0.00
2019-01-12T07:02:37.589Z,4.00
2019-01-12T07:03:37.532Z,4.00
2019-01-12T07:04:37.518Z,4.00
2019-01-12T07:05:37.506Z,4.00
2019-01-12T07:06:37.501Z,4.00
2019-01-12T07:07:37.506Z,4.00
2019-01-12T07:08:37.501Z,4.00
2019-01-12T07:09:37.514Z,4.00
2019-01-12T07:10:37.452Z,4.00
2019-01-12T07:11:37.473Z,4.00
2019-01-12T07:12:37.489Z,4.00
2019-01-12T07:13:37.439Z,4.00
2019-01-12T07:14:37.404Z,4.00
2019-01-12T07:15:37.397Z,4.00
2019-01-12T07:16:37.387Z,8.00
2019-01-12T07:17:37.392Z,4.00
2019-01-12T07:18:37.367Z,8.00
2019-01-12T07:19:37.345Z,8.00
2019-01-12T07:20:37.339Z,8.00
2019-01-12T07:21:37.334Z,8.00
2019-01-12T07:22:37.374Z,8.00
2019-01-12T07:23:37.307Z,8.00
2019-01-12T07:24:37.306Z,8.00
2019-01-12T07:25:37.320Z,12.00
2019-01-12T07:26:37.289Z,12.00
2019-01-12T07:27:37.285Z,12.00
2019-01-12T07:28:37.252Z,12.00
2019-01-12T07:29:37.238Z,8.00
2019-01-12T07:30:37.225Z,12.00
2019-01-12T07:31:37.219Z,16.00
2019-01-12T07:32:37.874Z,16.00
2019-01-12T07:33:37.195Z,16.00
2019-01-12T07:34:37.180Z,24.00
2019-01-12T07:35:37.178Z,20.00
2019-01-12T07:36:37.164Z,24.00
2019-01-12T07:37:37.192Z,24.00
2019-01-12T07:38:37.140Z,32.00
2019-01-12T07:39:37.134Z,28.00
2019-01-12T07:40:37.122Z,32.00
2019-01-12T07:41:37.110Z,36.00
2019-01-12T07:42:37.132Z,44.00
2019-01-12T07:43:37.091Z,36.00
2019-01-12T07:44:37.078Z,44.00
2019-01-12T07:45:37.109Z,36.00
2019-01-12T07:46:37.046Z,36.00
2019-01-12T07:47:37.079Z,24.00
2019-01-12T07:48:37.061Z,28.00
2019-01-12T07:49:37.018Z,32.00
2019-01-12T07:50:37.034Z,36.00
2019-01-12T07:51:37.005Z,40.00
2019-01-12T07:52:37.114Z,28.00
2019-01-12T07:53:36.997Z,28.00
2019-01-12T07:54:36.975Z,28.00
2019-01-12T07:55:36.967Z,24.00
2019-01-12T07:56:36.943Z,20.00
2019-01-12T07:57:36.954Z,16.00
2019-01-12T07:58:36.930Z,16.00
2019-01-12T07:59:36.933Z,20.00
2019-01-12T08:00:37.034Z,24.00
2019-01-12T08:01:36.883Z,28.00
2019-01-12T08:02:36.887Z,36.00
2019-01-12T08:03:36.890Z,32.00
2019-01-12T08:04:36.860Z,44.00
2019-01-12T08:05:36.854Z,44.00
2019-01-12T08:06:36.846Z,40.00
2019-01-12T08:07:36.835Z,36.00
2019-01-12T08:08:36.835Z,44.00
2019-01-12T08:09:36.815Z,56.00
2019-01-12T08:10:36.789Z,68.00
2019-01-12T08:11:36.796Z,80.00
2019-01-12T08:12:36.786Z,88.00
2019-01-12T08:13:36.824Z,84.00
2019-01-12T08:14:36.735Z,88.00
2019-01-12T08:15:36.741Z,92.00
2019-01-12T08:16:36.723Z,96.00
2019-01-12T08:17:36.707Z,148.00
2019-01-12T08:18:36.712Z,152.00
2019-01-12T08:19:36.742Z,152.00
2019-01-12T08:20:36.990Z,156.00
2019-01-12T08:21:36.670Z,140.00
2019-01-12T08:22:36.655Z,140.00
2019-01-12T08:23:36.685Z,132.00
2019-01-12T08:24:36.642Z,124.00
2019-01-12T08:25:36.684Z,124.00
2019-01-12T08:26:36.607Z,132.00
2019-01-12T08:27:36.602Z,136.00
2019-01-12T08:28:36.623Z,132.00
2019-01-12T08:29:36.642Z,140.00
2019-01-12T08:30:36.567Z,132.00
2019-01-12T08:31:36.604Z,112.00
2019-01-12T08:32:36.538Z,124.00
2019-01-12T08:33:36.544Z,116.00
2019-01-12T08:34:36.595Z,104.00
2019-01-12T08:35:36.519Z,124.00
2019-01-12T08:36:36.521Z,132.00
2019-01-12T08:37:36.498Z,112.00
2019-01-12T08:38:36.605Z,108.00
2019-01-12T08:39:36.494Z,120.00
2019-01-12T08:40:36.481Z,116.00
2019-01-12T08:41:36.470Z,104.00
2019-01-12T08:42:36.627Z,96.00
2019-01-12T08:43:36.427Z,100.00
2019-01-12T08:44:36.446Z,88.00
2019-01-12T08:45:36.474Z,92.00
2019-01-12T08:46:36.457Z,80.00
2019-01-12T08:47:36.466Z,92.00
2019-01-12T08:48:36.480Z,100.00
2019-01-12T08:49:36.383Z,100.00
2019-01-12T08:50:36.343Z,100.00
2019-01-12T08:51:36.380Z,108.00
2019-01-12T08:52:36.382Z,104.00
2019-01-12T08:53:36.305Z,88.00
2019-01-12T08:54:36.597Z,96.00
2019-01-12T08:55:36.282Z,108.00
2019-01-12T08:56:38.360Z,104.00
2019-01-12T08:57:36.260Z,88.00
2019-01-12T08:58:36.244Z,88.00
2019-01-12T08:59:36.310Z,104.00
2019-01-12T09:00:36.230Z,100.00
2019-01-12T09:01:36.225Z,104.00
2019-01-12T09:02:36.241Z,96.00
2019-01-12T09:03:36.231Z,84.00
2019-01-12T09:04:43.349Z,88.00
2019-01-12T09:05:37.193Z,92.00
2019-01-12T09:06:36.174Z,96.00
2019-01-12T09:07:36.306Z,96.00
2019-01-12T09:08:36.210Z,132.00
2019-01-12T09:09:36.159Z,112.00
2019-01-12T09:10:36.165Z,132.00
2019-01-12T09:11:36.120Z,172.00
2019-01-12T09:12:36.120Z,156.00
2019-01-12T09:13:36.114Z,164.00
2019-01-12T09:14:36.110Z,152.00
2019-01-12T09:15:36.094Z,128.00
2019-01-12T09:16:36.044Z,128.00
2019-01-12T09:17:36.054Z,116.00
2019-01-12T09:18:36.028Z,112.00
2019-01-12T09:19:36.029Z,112.00
2019-01-12T09:20:36.036Z,120.00
2019-01-12T09:21:35.999Z,144.00
2019-01-12T09:22:35.989Z,136.00
2019-01-12T09:23:35.997Z,144.00
2019-01-12T09:24:35.996Z,144.00
2019-01-12T09:25:35.976Z,140.00
2019-01-12T09:26:35.939Z,128.00
2019-01-12T09:27:35.935Z,120.00
2019-01-12T09:28:35.969Z,116.00
2019-01-12T09:29:35.928Z,120.00
2019-01-12T09:30:35.935Z,136.00
2019-01-12T09:31:35.943Z,124.00
2019-01-12T09:32:35.945Z,128.00
2019-01-12T09:33:35.859Z,124.00
2019-01-12T09:34:35.850Z,112.00
2019-01-12T09:35:35.895Z,120.00
2019-01-12T09:36:35.840Z,132.00
2019-01-12T09:37:35.821Z,124.00
2019-01-12T09:38:35.811Z,128.00
2019-01-12T09:39:35.803Z,112.00
2019-01-12T09:40:35.805Z,124.00
2019-01-12T09:41:35.812Z,128.00
2019-01-12T09:42:35.761Z,136.00
2019-01-12T09:43:35.744Z,128.00
2019-01-12T09:44:35.760Z,152.00
2019-01-12T09:45:35.747Z,136.00
2019-01-12T09:46:35.718Z,148.00
2019-01-12T09:47:35.708Z,156.00
2019-01-12T09:48:35.694Z,144.00
2019-01-12T09:49:35.682Z,144.00
2019-01-12T09:50:35.708Z,136.00
2019-01-12T09:51:35.675Z,124.00
2019-01-12T09:52:35.651Z,116.00
2019-01-12T09:53:35.639Z,108.00
2019-01-12T09:54:35.691Z,104.00
2019-01-12T09:55:35.663Z,116.00
2019-01-12T09:56:35.618Z,116.00
2019-01-12T09:57:35.820Z,108.00
2019-01-12T09:58:35.601Z,108.00
2019-01-12T09:59:35.578Z,104.00
2019-01-12T10:00:35.597Z,120.00
2019-01-12T10:01:35.550Z,124.00
2019-01-12T10:02:35.541Z,128.00
2019-01-12T10:03:35.584Z,128.00
2019-01-12T10:04:35.518Z,140.00
2019-01-12T10:05:35.530Z,112.00
2019-01-12T10:06:35.512Z,128.00
2019-01-12T10:07:35.559Z,140.00
2019-01-12T10:08:35.474Z,128.00
2019-01-12T10:09:35.461Z,160.00
2019-01-12T10:10:35.475Z,152.00
2019-01-12T10:11:35.502Z,148.00
2019-01-12T10:12:35.430Z,224.00
2019-01-12T10:13:35.679Z,180.00
2019-01-12T10:14:35.410Z,168.00
2019-01-12T10:15:35.412Z,196.00
2019-01-12T10:16:35.406Z,256.00
2019-01-12T10:17:35.384Z,264.00
2019-01-12T10:18:35.358Z,372.00
2019-01-12T10:19:35.357Z,444.00
2019-01-12T10:20:35.341Z,248.00
2019-01-12T10:21:35.352Z,308.00
2019-01-12T10:22:35.323Z,380.00
2019-01-12T10:23:35.336Z,276.00
2019-01-12T10:24:35.292Z,188.00
2019-01-12T10:25:35.297Z,232.00
2019-01-12T10:26:35.349Z,144.00
2019-01-12T10:27:35.260Z,140.00
2019-01-12T10:28:35.330Z,232.00
2019-01-12T10:29:35.244Z,168.00
2019-01-12T10:30:35.273Z,204.00
2019-01-12T10:31:35.244Z,152.00
2019-01-12T10:32:35.207Z,296.00
2019-01-12T10:33:35.210Z,184.00
2019-01-12T10:34:35.228Z,192.00
2019-01-12T10:35:35.168Z,136.00
2019-01-12T10:36:35.179Z,164.00
2019-01-12T10:37:35.160Z,140.00
2019-01-12T10:38:35.190Z,140.00
2019-01-12T10:39:35.144Z,120.00
2019-01-12T10:40:35.122Z,112.00
2019-01-12T10:41:35.137Z,132.00
2019-01-12T10:42:35.094Z,124.00
2019-01-12T10:43:35.143Z,156.00
2019-01-12T10:44:35.101Z,140.00
2019-01-12T10:45:35.064Z,180.00
2019-01-12T10:46:35.058Z,224.00
2019-01-12T10:47:35.065Z,216.00
2019-01-12T10:48:35.038Z,316.00
2019-01-12T10:49:35.070Z,244.00
2019-01-12T10:50:35.009Z,208.00
2019-01-12T10:51:35.196Z,264.00
2019-01-12T10:52:34.999Z,244.00
2019-01-12T10:53:34.976Z,236.00
2019-01-12T10:54:35.026Z,232.00
2019-01-12T10:55:35.016Z,212.00
2019-01-12T10:56:34.952Z,316.00
2019-01-12T10:57:34.955Z,172.00
2019-01-12T10:58:34.946Z,152.00
2019-01-12T10:59:34.954Z,152.00
2019-01-12T11:00:34.918Z,216.00
2019-01-12T11:01:34.913Z,128.00
2019-01-12T11:02:35.026Z,184.00
2019-01-12T11:03:34.869Z,152.00
2019-01-12T11:04:34.862Z,272.00
2019-01-12T11:05:34.867Z,160.00
2019-01-12T11:06:34.826Z,140.00
2019-01-12T11:07:34.859Z,256.00
2019-01-12T11:08:34.809Z,188.00
2019-01-12T11:09:34.801Z,216.00
2019-01-12T11:10:34.791Z,260.00
2019-01-12T11:11:34.787Z,208.00
2019-01-12T11:12:34.769Z,212.00
2019-01-12T11:13:34.827Z,316.00
2019-01-12T11:14:34.757Z,484.00
2019-01-12T11:15:35.510Z,376.00
2019-01-12T11:16:34.708Z,316.00
2019-01-12T11:17:34.734Z,340.00
2019-01-12T11:18:34.693Z,276.00
2019-01-12T11:19:34.784Z,260.00
2019-01-12T11:20:34.689Z,348.00
2019-01-12T11:21:34.662Z,388.00
2019-01-12T11:22:34.647Z,320.00
2019-01-12T11:23:34.662Z,252.00
2019-01-12T11:24:34.644Z,284.00
2019-01-12T11:25:34.688Z,304.00
2019-01-12T11:26:34.598Z,212.00
2019-01-12T11:27:34.598Z,356.00
2019-01-12T11:28:34.650Z,440.00
2019-01-12T11:29:34.569Z,428.00
2019-01-12T11:30:34.566Z,464.00
2019-01-12T11:31:34.556Z,396.00
2019-01-12T11:32:34.538Z,396.00
2019-01-12T11:33:34.546Z,420.00
2019-01-12T11:34:34.518Z,288.00
2019-01-12T11:35:34.522Z,280.00
2019-01-12T11:36:34.514Z,256.00
2019-01-12T11:37:34.493Z,216.00
2019-01-12T11:38:34.524Z,368.00
2019-01-12T11:39:34.453Z,300.00
2019-01-12T11:40:34.463Z,184.00
2019-01-12T11:41:34.433Z,196.00
2019-01-12T11:42:34.432Z,220.00
2019-01-12T11:43:34.441Z,220.00
2019-01-12T11:44:34.419Z,180.00
2019-01-12T11:45:34.405Z,212.00
2019-01-12T11:46:34.399Z,168.00
2019-01-12T11:47:34.386Z,168.00
2019-01-12T11:48:34.460Z,148.00
2019-01-12T11:49:34.369Z,168.00
2019-01-12T11:50:34.343Z,140.00
2019-01-12T11:51:34.326Z,148.00
2019-01-12T11:52:34.309Z,212.00
2019-01-12T11:53:34.333Z,188.00
2019-01-12T11:54:34.296Z,132.00
2019-01-12T11:55:34.273Z,216.00
2019-01-12T11:56:34.266Z,356.00
2019-01-12T11:57:34.311Z,168.00
2019-01-12T11:58:34.266Z,244.00
2019-01-12T11:59:34.255Z,208.00
2019-01-12T12:00:34.223Z,288.00
2019-01-12T12:01:34.212Z,228.00
2019-01-12T12:02:37.730Z,176.00
2019-01-12T12:03:34.227Z,192.00
2019-01-12T12:04:34.188Z,116.00
2019-01-12T12:05:34.161Z,112.00
2019-01-12T12:06:34.149Z,204.00
2019-01-12T12:07:34.142Z,232.00
2019-01-12T12:08:34.163Z,224.00
2019-01-12T12:09:34.141Z,204.00
2019-01-12T12:10:34.126Z,368.00
2019-01-12T12:11:34.170Z,356.00
2019-01-12T12:12:34.082Z,320.00
2019-01-12T12:13:34.103Z,480.00
2019-01-12T12:14:34.075Z,400.00
2019-01-12T12:15:34.113Z,388.00
2019-01-12T12:16:34.089Z,468.00
2019-01-12T12:17:34.026Z,492.00
2019-01-12T12:18:34.032Z,344.00
2019-01-12T12:19:34.035Z,256.00
2019-01-12T12:20:33.999Z,420.00
2019-01-12T12:21:33.999Z,352.00
2019-01-12T12:22:33.985Z,348.00
2019-01-12T12:23:34.063Z,368.00
2019-01-12T12:24:33.950Z,304.00
2019-01-12T12:25:33.948Z,256.00
2019-01-12T12:26:33.935Z,296.00
2019-01-12T12:27:33.919Z,356.00
2019-01-12T12:28:33.970Z,268.00
2019-01-12T12:29:33.914Z,372.00
2019-01-12T12:30:33.901Z,316.00
2019-01-12T12:31:33.876Z,384.00
2019-01-12T12:32:33.898Z,536.00
2019-01-12T12:33:33.896Z,396.00
2019-01-12T12:34:33.838Z,356.00
2019-01-12T12:35:37.610Z,268.00
2019-01-12T12:36:33.829Z,296.00
2019-01-12T12:37:33.828Z,180.00
2019-01-12T12:38:33.839Z,224.00
2019-01-12T12:39:33.829Z,236.00
2019-01-12T12:40:33.785Z,196.00
2019-01-12T12:41:33.773Z,196.00
2019-01-12T12:42:33.756Z,200.00
2019-01-12T12:43:33.759Z,212.00
2019-01-12T12:44:33.744Z,200.00
2019-01-12T12:45:33.736Z,272.00
2019-01-12T12:46:33.700Z,352.00
2019-01-12T12:47:33.689Z,344.00
2019-01-12T12:48:33.713Z,232.00
2019-01-12T12:49:33.699Z,192.00
2019-01-12T12:50:48.606Z,224.00
2019-01-12T12:51:54.655Z,228.00
2019-01-12T12:52:33.686Z,228.00
2019-01-12T12:53:34.479Z,204.00
2019-01-12T12:54:33.627Z,304.00
2019-01-12T12:55:33.636Z,296.00
2019-01-12T12:56:33.592Z,244.00
2019-01-12T12:57:33.617Z,372.00
2019-01-12T12:58:33.575Z,380.00